createdAt,value
2018-06-15T00:01:35.690Z,100658.48
2018-06-15T00:04:11.029Z,100661.89
2018-06-15T00:06:44.340Z,100661.73
2018-06-15T00:09:17.712Z,100660.29
2018-06-15T00:11:51.440Z,100668.52
2018-06-15T00:14:24.813Z,100661.59
2018-06-15T00:16:58.165Z,100673.07
2018-06-15T00:19:31.515Z,100665.98
2018-06-15T00:22:04.846Z,100669.41
2018-06-15T00:24:38.203Z,100671.53
2018-06-15T00:27:11.561Z,100673.91
2018-06-15T00:29:44.893Z,100672.61
2018-06-15T00:32:18.196Z,100672.14
2018-06-15T00:34:51.530Z,100671.69
2018-06-15T00:37:24.827Z,100672.97
2018-06-15T00:39:58.176Z,100673.44
2018-06-15T00:42:31.504Z,100673.44
2018-06-15T00:45:04.853Z,100673.96
2018-06-15T00:47:38.150Z,100673.28
2018-06-15T00:50:11.484Z,100677.01
2018-06-15T00:52:44.778Z,100677.22
2018-06-15T00:55:18.113Z,100671.53
2018-06-15T00:57:51.452Z,100670.33
2018-06-15T01:00:24.806Z,100670.70
2018-06-15T01:02:58.180Z,100676.33
2018-06-15T01:05:31.536Z,100670.33
2018-06-15T01:08:04.976Z,100668.94
2018-06-15T01:10:38.309Z,100671.98
2018-06-15T01:13:11.631Z,100675.04
2018-06-15T01:15:45.051Z,100675.04
2018-06-15T01:18:18.424Z,100676.48
2018-06-15T01:20:51.856Z,100680.73
2018-06-15T01:23:25.229Z,100678.98
2018-06-15T01:25:58.557Z,100675.09
2018-06-15T01:28:32.030Z,100674.48
2018-06-15T01:31:05.361Z,100674.02
2018-06-15T01:33:38.698Z,100674.33
2018-06-15T01:36:12.176Z,100675.09
2018-06-15T01:38:45.516Z,100674.63
2018-06-15T01:41:18.828Z,100676.60
2018-06-15T01:43:52.209Z,100671.22
2018-06-15T01:46:25.587Z,100662.90
2018-06-15T01:48:58.937Z,100660.94
2018-06-15T01:51:32.256Z,100662.02
2018-06-15T01:54:05.653Z,100667.50
2018-06-15T01:56:39.237Z,100673.12
2018-06-15T01:59:12.593Z,100677.94
2018-06-15T02:01:46.064Z,100672.91
2018-06-15T02:04:19.389Z,100671.62
2018-06-15T02:06:52.819Z,100674.67
2018-06-15T02:09:26.309Z,100670.42
2018-06-15T02:11:59.684Z,100672.08
2018-06-15T02:14:32.976Z,100671.62
2018-06-15T02:17:06.393Z,100670.42
2018-06-15T02:19:39.913Z,100672.45
2018-06-15T02:22:13.274Z,100671.25
2018-06-15T02:24:46.628Z,100670.79
2018-06-15T02:27:20.030Z,100671.62
2018-06-15T02:29:53.478Z,100674.20
2018-06-15T02:32:26.844Z,100675.87
2018-06-15T02:35:00.189Z,100677.10
2018-06-15T02:37:33.540Z,100683.20
2018-06-15T02:40:06.882Z,100679.75
2018-06-15T02:42:40.355Z,100684.03
2018-06-15T02:45:13.741Z,100693.45
2018-06-15T02:47:47.187Z,100697.70
2018-06-15T02:50:21.605Z,100695.88
2018-06-15T02:52:54.934Z,100689.48
2018-06-15T02:55:28.380Z,100693.30
2018-06-15T02:58:01.748Z,100688.59
2018-06-15T03:00:35.068Z,100690.25
2018-06-15T03:03:08.426Z,100697.70
2018-06-15T03:05:41.740Z,100692.06
2018-06-15T03:08:15.113Z,100694.74
2018-06-15T03:10:48.491Z,100701.30
2018-06-15T03:13:21.812Z,100697.33
2018-06-15T03:15:55.233Z,100697.33
2018-06-15T03:18:28.584Z,100697.64
2018-06-15T03:21:01.947Z,100697.55
2018-06-15T03:23:35.258Z,100696.19
2018-06-15T03:26:08.593Z,100699.21
2018-06-15T03:28:41.935Z,100700.34
2018-06-15T03:31:15.285Z,100710.17
2018-06-15T03:33:48.600Z,100708.88
2018-06-15T03:36:21.918Z,100712.61
2018-06-15T03:38:55.224Z,100720.73
2018-06-15T03:41:28.725Z,100718.52
2018-06-15T03:44:02.035Z,100720.95
2018-06-15T03:46:36.001Z,100720.48
2018-06-15T03:49:09.316Z,100725.66
2018-06-15T03:51:42.666Z,100728.25
2018-06-15T03:54:15.960Z,100730.84
2018-06-15T03:56:49.303Z,100726.50
2018-06-15T03:59:22.604Z,100735.52
2018-06-15T04:01:55.953Z,100735.89
2018-06-15T04:04:29.265Z,100734.25
2018-06-15T04:07:02.606Z,100737.19
2018-06-15T04:09:35.922Z,100737.19
2018-06-15T04:12:09.277Z,100740.23
2018-06-15T04:14:42.585Z,100751.27
2018-06-15T04:17:17.001Z,100748.98
2018-06-15T04:19:50.326Z,100749.50
2018-06-15T04:22:23.656Z,100753.33
2018-06-15T04:24:56.973Z,100759.23
2018-06-15T04:27:30.369Z,100759.45
2018-06-15T04:30:03.688Z,100759.30
2018-06-15T04:32:37.045Z,100759.14
2018-06-15T04:35:10.356Z,100758.99
2018-06-15T04:37:43.668Z,100763.02
2018-06-15T04:40:16.988Z,100759.77
2018-06-15T04:42:50.337Z,100763.39
2018-06-15T04:45:23.636Z,100760.09
2018-06-15T04:47:57.070Z,100761.69
2018-06-15T04:50:30.453Z,100769.40
2018-06-15T04:53:03.768Z,100769.14
2018-06-15T04:55:37.138Z,100764.85
2018-06-15T04:58:10.471Z,100769.71
2018-06-15T05:00:43.882Z,100762.52
2018-06-15T05:03:17.230Z,100772.05
2018-06-15T05:05:50.563Z,100777.02
2018-06-15T05:08:23.892Z,100778.77
2018-06-15T05:10:57.317Z,100784.32
2018-06-15T05:13:30.664Z,100778.67
2018-06-15T05:16:04.086Z,100786.22
2018-06-15T05:18:37.458Z,100787.89
2018-06-15T05:21:10.785Z,100799.55
2018-06-15T05:23:44.217Z,100795.50
2018-06-15T05:26:17.540Z,100795.03
2018-06-15T05:28:50.856Z,100800.42
2018-06-15T05:31:24.216Z,100808.77
2018-06-15T05:33:57.681Z,100802.97
2018-06-15T05:36:33.045Z,100805.80
2018-06-15T05:39:08.748Z,100807.31
2018-06-15T05:41:42.377Z,100814.70
2018-06-15T05:44:15.754Z,100812.84
2018-06-15T05:46:49.052Z,100811.26
2018-06-15T05:49:22.408Z,100812.03
2018-06-15T05:51:56.894Z,100811.70
2018-06-15T05:54:30.225Z,100814.77
2018-06-15T05:57:03.525Z,100816.20
2018-06-15T05:59:36.884Z,100818.52
2018-06-15T06:02:10.196Z,100817.70
2018-06-15T06:04:43.554Z,100824.94
2018-06-15T06:07:16.925Z,100824.31
2018-06-15T06:09:50.278Z,100825.28
2018-06-15T06:12:23.584Z,100821.81
2018-06-15T06:14:56.914Z,100818.23
2018-06-15T06:17:30.257Z,100822.88
2018-06-15T06:20:03.689Z,100818.19
2018-06-15T06:22:37.068Z,100819.71
2018-06-15T06:25:10.392Z,100822.16
2018-06-15T06:27:43.685Z,100825.46
2018-06-15T06:30:17.027Z,100830.88
2018-06-15T06:32:50.326Z,100834.56
2018-06-15T06:35:23.645Z,100840.23
2018-06-15T06:37:57.015Z,100837.70
2018-06-15T06:40:30.315Z,100840.54
2018-06-15T06:43:03.622Z,100846.32
2018-06-15T06:45:36.937Z,100849.41
2018-06-15T06:48:10.248Z,100851.83
2018-06-15T06:50:43.571Z,100845.06
2018-06-15T06:53:16.925Z,100847.36
2018-06-15T06:55:50.273Z,100843.31
2018-06-15T06:58:23.588Z,100846.75
2018-06-15T07:00:57.080Z,100853.66
2018-06-15T07:03:30.414Z,100855.51
2018-06-15T07:06:03.740Z,100851.37
2018-06-15T07:08:37.069Z,100856.96
2018-06-15T07:11:10.468Z,100864.27
2018-06-15T07:13:43.796Z,100857.55
2018-06-15T07:16:17.156Z,100860.47
2018-06-15T07:18:50.472Z,100854.42
2018-06-15T07:21:23.815Z,100857.03
2018-06-15T07:23:57.100Z,100862.02
2018-06-15T07:26:30.440Z,100858.77
2018-06-15T07:29:03.784Z,100860.05
2018-06-15T07:31:37.096Z,100861.16
2018-06-15T07:34:10.441Z,100864.34
2018-06-15T07:36:43.766Z,100863.80
2018-06-15T07:39:17.108Z,100861.86
2018-06-15T07:41:50.444Z,100863.91
2018-06-15T07:44:23.763Z,100865.48
2018-06-15T07:46:57.190Z,100866.98
2018-06-15T07:49:30.490Z,100872.38
2018-06-15T07:52:03.813Z,100869.84
2018-06-15T07:54:37.124Z,100873.84
2018-06-15T07:57:10.456Z,100866.50
2018-06-15T07:59:43.830Z,100869.48
2018-06-15T08:02:17.080Z,100872.38
2018-06-15T08:04:50.395Z,100876.44
2018-06-15T08:07:23.715Z,100875.66
2018-06-15T08:09:57.011Z,100873.26
2018-06-15T08:12:30.328Z,100875.67
2018-06-15T08:15:03.649Z,100874.89
2018-06-15T08:17:37.005Z,100873.72
2018-06-15T08:20:10.318Z,100873.20
2018-06-15T08:22:43.641Z,100874.63
2018-06-15T08:25:16.951Z,100867.30
2018-06-15T08:27:50.296Z,100870.97
2018-06-15T08:30:23.584Z,100874.87
2018-06-15T08:32:56.980Z,100876.37
2018-06-15T08:35:30.284Z,100874.75
2018-06-15T08:38:03.611Z,100862.33
2018-06-15T08:40:36.925Z,100872.77
2018-06-15T08:43:10.244Z,100863.79
2018-06-15T08:45:43.561Z,100874.78
2018-06-15T08:48:16.949Z,100874.04
2018-06-15T08:50:50.261Z,100867.58
2018-06-15T08:53:23.589Z,100870.25
2018-06-15T08:55:56.868Z,100877.12
2018-06-15T08:58:30.222Z,100872.02
2018-06-15T09:01:03.512Z,100882.28
2018-06-15T09:03:36.809Z,100876.51
2018-06-15T09:06:10.134Z,100879.86
2018-06-15T09:08:43.454Z,100877.48
2018-06-15T09:11:16.766Z,100876.80
2018-06-15T09:13:50.076Z,100879.47
2018-06-15T09:16:23.504Z,100884.31
2018-06-15T09:18:56.834Z,100878.28
2018-06-15T09:21:30.220Z,100875.58
2018-06-15T09:24:03.535Z,100877.76
2018-06-15T09:26:36.825Z,100876.41
2018-06-15T09:29:10.125Z,100875.09
2018-06-15T09:31:43.442Z,100876.45
2018-06-15T09:34:16.756Z,100877.87
2018-06-15T09:36:50.049Z,100872.13
2018-06-15T09:39:23.423Z,100867.81
2018-06-15T09:41:56.711Z,100868.80
2018-06-15T09:44:30.084Z,100864.59
2018-06-15T09:47:03.385Z,100862.92
2018-06-15T09:49:36.716Z,100865.60
2018-06-15T09:52:10.061Z,100860.50
2018-06-15T09:54:43.408Z,100863.38
2018-06-15T09:57:16.702Z,100863.30
2018-06-15T09:59:50.032Z,100865.66
2018-06-15T10:02:23.337Z,100865.12
2018-06-15T10:04:56.648Z,100868.28
2018-06-15T10:07:29.937Z,100862.27
2018-06-15T10:10:03.275Z,100867.97
2018-06-15T10:12:36.569Z,100865.47
2018-06-15T10:15:09.889Z,100869.72
2018-06-15T10:17:43.193Z,100873.36
2018-06-15T10:20:16.519Z,100874.96
2018-06-15T10:22:49.841Z,100880.13
2018-06-15T10:25:23.151Z,100881.21
2018-06-15T10:27:56.490Z,100885.23
2018-06-15T10:30:29.832Z,100885.50
2018-06-15T10:33:03.152Z,100884.80
2018-06-15T10:35:36.486Z,100877.78
2018-06-15T10:38:10.073Z,100877.31
2018-06-15T10:40:43.383Z,100878.54
2018-06-15T10:43:16.687Z,100878.14
2018-06-15T10:45:50.018Z,100877.02
2018-06-15T10:48:23.339Z,100878.34
2018-06-15T10:50:56.652Z,100880.14
2018-06-15T10:53:29.948Z,100873.12
2018-06-15T10:56:03.250Z,100877.79
2018-06-15T10:58:36.571Z,100868.05
2018-06-15T11:01:09.896Z,100871.13
2018-06-15T11:03:43.176Z,100869.92
2018-06-15T11:06:16.485Z,100870.32
2018-06-15T11:08:49.780Z,100868.21
2018-06-15T11:11:23.132Z,100869.44
2018-06-15T11:13:56.416Z,100863.70
2018-06-15T11:16:29.728Z,100854.30
2018-06-15T11:19:03.089Z,100857.53
2018-06-15T11:21:36.418Z,100859.33
2018-06-15T11:24:09.729Z,100864.42
2018-06-15T11:26:49.645Z,100863.77
2018-06-15T11:29:22.965Z,100861.42
2018-06-15T11:31:56.274Z,100863.63
2018-06-15T11:34:30.534Z,100862.12
2018-06-15T11:37:03.859Z,100856.52
2018-06-15T11:39:37.197Z,100850.25
2018-06-15T11:42:10.493Z,100857.64
2018-06-15T11:44:43.810Z,100848.59
2018-06-15T11:47:17.117Z,100849.90
2018-06-15T11:49:50.446Z,100849.07
2018-06-15T11:52:23.748Z,100847.56
2018-06-15T11:54:57.088Z,100846.78
2018-06-15T11:57:30.543Z,100846.81
2018-06-15T12:00:03.897Z,100838.41
2018-06-15T12:02:37.192Z,100837.47
2018-06-15T12:05:10.578Z,100836.58
2018-06-15T12:07:43.887Z,100834.70
2018-06-15T12:10:17.190Z,100839.30
2018-06-15T12:12:50.525Z,100835.44
2018-06-15T12:15:23.866Z,100834.84
2018-06-15T12:17:57.192Z,100830.05
2018-06-15T12:20:30.528Z,100835.03
2018-06-15T12:23:03.832Z,100836.97
2018-06-15T12:25:37.149Z,100836.47
2018-06-15T12:28:10.792Z,100836.95
2018-06-15T12:30:44.126Z,100834.23
2018-06-15T12:33:17.439Z,100830.50
2018-06-15T12:35:50.744Z,100831.61
2018-06-15T12:38:24.280Z,100825.12
2018-06-15T12:40:57.608Z,100828.07
2018-06-15T12:43:30.945Z,100823.37
2018-06-15T12:46:04.408Z,100821.85
2018-06-15T12:48:37.596Z,100819.55
2018-06-15T12:51:11.786Z,100820.23
2018-06-15T12:53:47.174Z,100823.32
2018-06-15T12:56:20.513Z,100820.41
2018-06-15T12:58:53.808Z,100823.95
2018-06-15T13:01:27.137Z,100819.20
2018-06-15T13:04:00.432Z,100817.83
2018-06-15T13:06:33.762Z,100821.26
2018-06-15T13:09:08.374Z,100821.52
2018-06-15T13:11:41.693Z,100823.42
2018-06-15T13:14:15.001Z,100812.86
2018-06-15T13:16:48.400Z,100807.58
2018-06-15T13:19:21.704Z,100805.97
2018-06-15T13:21:55.045Z,100798.05
2018-06-15T13:24:32.443Z,100798.53
2018-06-15T13:27:05.784Z,100795.47
2018-06-15T13:29:39.089Z,100799.01
2018-06-15T13:32:12.403Z,100796.07
2018-06-15T13:34:45.701Z,100796.02
2018-06-15T13:37:19.050Z,100800.45
2018-06-15T13:39:52.429Z,100791.59
2018-06-15T13:42:25.841Z,100787.61
2018-06-15T13:44:59.734Z,100793.72
2018-06-15T13:47:33.049Z,100787.20
2018-06-15T13:50:06.345Z,100789.00
2018-06-15T13:52:39.664Z,100790.38
2018-06-15T13:55:12.968Z,100787.69
2018-06-15T13:57:46.305Z,100788.48
2018-06-15T14:00:19.633Z,100793.84
2018-06-15T14:02:52.962Z,100792.14
2018-06-15T14:05:26.265Z,100785.08
2018-06-15T14:08:00.038Z,100786.80
2018-06-15T14:10:33.360Z,100794.67
2018-06-15T14:13:06.700Z,100792.36
2018-06-15T14:15:40.057Z,100794.69
2018-06-15T14:18:13.367Z,100791.94
2018-06-15T14:20:46.716Z,100798.62
2018-06-15T14:23:20.037Z,100794.69
2018-06-15T14:25:53.420Z,100794.93
2018-06-15T14:28:26.880Z,100797.80
2018-06-15T14:31:02.519Z,100791.39
2018-06-15T14:33:35.951Z,100795.52
2018-06-15T14:36:09.830Z,100794.55
2018-06-15T14:38:43.179Z,100794.48
2018-06-15T14:41:16.489Z,100797.20
2018-06-15T14:43:49.958Z,100794.58
2018-06-15T14:46:23.252Z,100790.89
2018-06-15T14:48:56.577Z,100794.39
2018-06-15T14:51:29.938Z,100789.75
2018-06-15T14:54:05.644Z,100797.60
2018-06-15T14:56:39.119Z,100789.94
2018-06-15T14:59:12.455Z,100785.43
2018-06-15T15:01:47.001Z,100782.70
2018-06-15T15:04:20.502Z,100774.22
2018-06-15T15:06:53.898Z,100774.34
2018-06-15T15:09:27.237Z,100775.86
2018-06-15T15:12:01.501Z,100773.23
2018-06-15T15:14:34.796Z,100769.45
2018-06-15T15:17:08.446Z,100772.91
2018-06-15T15:19:41.793Z,100777.24
2018-06-15T15:22:15.144Z,100776.32
2018-06-15T15:24:48.465Z,100776.90
2018-06-15T15:27:21.825Z,100771.55
2018-06-15T15:29:55.173Z,100765.61
2018-06-15T15:32:28.521Z,100770.51
2018-06-15T15:35:02.100Z,100769.94
2018-06-15T15:37:35.434Z,100768.86
2018-06-15T15:40:08.717Z,100764.69
2018-06-15T15:42:42.032Z,100763.14
2018-06-15T15:45:15.321Z,100759.35
2018-06-15T15:47:48.633Z,100755.37
2018-06-15T15:50:21.960Z,100752.36
2018-06-15T15:52:55.268Z,100760.36
2018-06-15T15:55:28.570Z,100762.31
2018-06-15T15:58:02.929Z,100756.50
2018-06-15T16:00:36.225Z,100759.47
2018-06-15T16:03:09.550Z,100757.23
2018-06-15T16:05:42.866Z,100751.59
2018-06-15T16:08:16.220Z,100748.20
2018-06-15T16:10:49.532Z,100750.86
2018-06-15T16:13:23.530Z,100757.89
2018-06-15T16:15:56.910Z,100763.14
2018-06-15T16:18:30.968Z,100767.55
2018-06-15T16:21:04.345Z,100771.12
2018-06-15T16:23:38.509Z,100766.73
2018-06-15T16:26:11.828Z,100770.80
2018-06-15T16:28:45.176Z,100770.78
2018-06-15T16:31:18.476Z,100771.50
2018-06-15T16:33:51.829Z,100768.30
2018-06-15T16:36:25.230Z,100769.41
2018-06-15T16:38:58.827Z,100768.48
2018-06-15T16:41:32.189Z,100768.69
2018-06-15T16:44:05.597Z,100762.77
2018-06-15T16:46:38.921Z,100768.82
2018-06-15T16:49:12.246Z,100763.01
2018-06-15T16:51:45.731Z,100762.69
2018-06-15T16:54:19.147Z,100766.75
2018-06-15T16:56:52.463Z,100764.23
2018-06-15T16:59:25.781Z,100766.27
2018-06-15T17:01:59.135Z,100768.16
2018-06-15T17:04:32.449Z,100767.33
2018-06-15T17:07:05.834Z,100766.85
2018-06-15T17:09:39.387Z,100770.05
2018-06-15T17:12:12.858Z,100768.13
2018-06-15T17:14:46.193Z,100770.88
2018-06-15T17:17:19.548Z,100766.61
2018-06-15T17:19:52.948Z,100761.63
2018-06-15T17:22:26.245Z,100766.03
2018-06-15T17:25:00.552Z,100761.97
2018-06-15T17:27:34.201Z,100763.03
2018-06-15T17:30:07.636Z,100764.83
2018-06-15T17:32:41.104Z,100768.27
2018-06-15T17:35:14.436Z,100770.19
2018-06-15T17:37:47.758Z,100768.40
2018-06-15T17:40:21.131Z,100768.05
2018-06-15T17:42:54.497Z,100769.02
2018-06-15T17:45:27.826Z,100760.34
2018-06-15T17:48:01.180Z,100759.99
2018-06-15T17:50:34.566Z,100769.00
2018-06-15T17:53:07.885Z,100766.86
2018-06-15T17:55:41.282Z,100769.80
2018-06-15T17:58:14.612Z,100773.63
2018-06-15T18:00:47.973Z,100774.21
2018-06-15T18:03:21.578Z,100779.91
2018-06-15T18:05:54.980Z,100776.00
2018-06-15T18:08:28.300Z,100785.13
2018-06-15T18:11:02.420Z,100775.52
2018-06-15T18:13:35.717Z,100782.85
2018-06-15T18:16:09.057Z,100786.30
2018-06-15T18:18:42.361Z,100785.32
2018-06-15T18:21:15.720Z,100791.73
2018-06-15T18:23:49.219Z,100789.45
2018-06-15T18:26:22.556Z,100791.90
2018-06-15T18:28:55.901Z,100790.95
2018-06-15T18:31:29.252Z,100790.34
2018-06-15T18:34:02.577Z,100789.39
2018-06-15T18:36:35.908Z,100789.83
2018-06-15T18:39:12.533Z,100791.70
2018-06-15T18:41:45.908Z,100792.24
2018-06-15T18:44:19.239Z,100792.23
2018-06-15T18:46:52.554Z,100791.84
2018-06-15T18:49:25.885Z,100790.16
2018-06-15T18:51:59.185Z,100788.81
2018-06-15T18:54:32.515Z,100794.48
2018-06-15T18:57:06.281Z,100796.96
2018-06-15T18:59:39.614Z,100795.94
2018-06-15T19:02:12.924Z,100793.54
2018-06-15T19:04:46.272Z,100798.27
2018-06-15T19:07:19.587Z,100799.52
2018-06-15T19:09:52.904Z,100800.33
2018-06-15T19:12:27.296Z,100797.20
2018-06-15T19:15:00.720Z,100797.52
2018-06-15T19:17:34.040Z,100799.63
2018-06-15T19:20:07.382Z,100796.97
2018-06-15T19:22:40.773Z,100795.61
2018-06-15T19:25:14.115Z,100800.45
2018-06-15T19:27:47.416Z,100802.99
2018-06-15T19:30:20.736Z,100799.41
2018-06-15T19:32:54.050Z,100804.44
2018-06-15T19:35:27.398Z,100805.98
2018-06-15T19:38:02.749Z,100810.09
2018-06-15T19:40:36.109Z,100814.17
2018-06-15T19:43:09.528Z,100813.55
2018-06-15T19:45:42.888Z,100815.13
2018-06-15T19:48:16.216Z,100814.98
2018-06-15T19:50:49.580Z,100809.73
2018-06-15T19:53:22.905Z,100810.41
2018-06-15T19:55:56.290Z,100818.07
2018-06-15T19:58:30.949Z,100824.03
2018-06-15T20:01:04.286Z,100814.13
2018-06-15T20:03:37.651Z,100819.85
2018-06-15T20:06:11.076Z,100813.73
2018-06-15T20:08:44.405Z,100812.83
2018-06-15T20:11:17.776Z,100821.50
2018-06-15T20:13:51.086Z,100819.87
2018-06-15T20:16:24.476Z,100820.34
2018-06-15T20:18:57.821Z,100816.47
2018-06-15T20:21:31.898Z,100816.37
2018-06-15T20:24:05.220Z,100817.34
2018-06-15T20:26:38.624Z,100821.62
2018-06-15T20:29:12.243Z,100824.16
2018-06-15T20:31:45.600Z,100826.75
2018-06-15T20:34:19.031Z,100813.13
2018-06-15T20:36:52.417Z,100817.67
2018-06-15T20:39:25.728Z,100815.48
2018-06-15T20:41:59.100Z,100812.79
2018-06-15T20:44:32.395Z,100815.75
2018-06-15T20:47:05.721Z,100817.31
2018-06-15T20:49:39.055Z,100820.56
2018-06-15T20:52:12.582Z,100827.23
2018-06-15T20:54:55.657Z,100818.25
2018-06-15T20:57:33.889Z,100810.65
2018-06-15T21:00:07.236Z,100807.94
2018-06-15T21:02:41.699Z,100810.46
2018-06-15T21:05:15.153Z,100809.52
2018-06-15T21:07:48.666Z,100806.92
2018-06-15T21:10:22.211Z,100814.06
2018-06-15T21:12:55.577Z,100812.83
2018-06-15T21:15:29.053Z,100810.97
2018-06-15T21:18:02.364Z,100814.28
2018-06-15T21:20:35.668Z,100815.56
2018-06-15T21:23:09.308Z,100803.88
2018-06-15T21:25:42.685Z,100810.23
2018-06-15T21:28:16.138Z,100805.86
2018-06-15T21:30:49.492Z,100804.35
2018-06-15T21:33:22.977Z,100803.20
2018-06-15T21:35:56.481Z,100802.41
2018-06-15T21:38:31.108Z,100800.52
2018-06-15T21:41:04.396Z,100791.14
2018-06-15T21:43:37.815Z,100791.67
2018-06-15T21:46:11.253Z,100793.14
2018-06-15T21:48:44.677Z,100790.81
2018-06-15T21:51:18.121Z,100797.16
2018-06-15T21:53:51.572Z,100801.14
2018-06-15T21:56:25.192Z,100801.51
2018-06-15T21:58:58.582Z,100801.17
2018-06-15T22:01:31.927Z,100801.17
2018-06-15T22:04:05.274Z,100798.88
2018-06-15T22:06:39.000Z,100797.48
2018-06-15T22:09:12.422Z,100790.34
2018-06-15T22:11:45.747Z,100784.83
2018-06-15T22:14:19.174Z,100786.81
2018-06-15T22:16:53.327Z,100782.55
2018-06-15T22:19:26.790Z,100780.01
2018-06-15T22:22:00.117Z,100782.34
2018-06-15T22:24:33.428Z,100782.45
2018-06-15T22:27:06.891Z,100778.67
2018-06-15T22:29:40.419Z,100776.48
2018-06-15T22:32:13.941Z,100773.91
2018-06-15T22:34:47.263Z,100774.36
2018-06-15T22:37:20.641Z,100779.11
2018-06-15T22:39:54.047Z,100779.16
2018-06-15T22:42:27.341Z,100781.53
2018-06-15T22:45:01.083Z,100779.23
2018-06-15T22:47:34.393Z,100781.45
2018-06-15T22:50:07.810Z,100774.53
2018-06-15T22:52:41.229Z,100780.31
2018-06-15T22:55:26.745Z,100781.61
2018-06-15T22:58:00.168Z,100781.70
2018-06-15T23:00:33.489Z,100787.70
2018-06-15T23:03:06.926Z,100790.53
2018-06-15T23:05:40.322Z,100792.66
2018-06-15T23:08:13.657Z,100790.28
2018-06-15T23:10:47.002Z,100789.97
2018-06-15T23:13:20.409Z,100795.83
2018-06-15T23:15:53.915Z,100793.13
2018-06-15T23:18:32.947Z,100797.30
2018-06-15T23:21:06.294Z,100799.50
2018-06-15T23:23:39.911Z,100799.97
2018-06-15T23:26:13.229Z,100798.12
2018-06-15T23:28:46.632Z,100796.97
2018-06-15T23:31:20.076Z,100793.69
2018-06-15T23:33:53.521Z,100785.84
2018-06-15T23:36:26.881Z,100784.09
2018-06-15T23:39:00.228Z,100794.05
2018-06-15T23:41:33.526Z,100798.49
2018-06-15T23:44:07.056Z,100792.63
2018-06-15T23:46:40.418Z,100793.36
2018-06-15T23:49:13.757Z,100801.28
2018-06-15T23:51:47.128Z,100801.55
2018-06-15T23:54:20.477Z,100805.06
2018-06-15T23:56:53.921Z,100802.38
2018-06-15T23:59:27.348Z,100802.77
